Time;durP1;ratioP1;P1;durP2;ratioP2;P2;SDS_P1;SDS_P2;PMS_P1;PMS_P2;Temp;Humidity;BMP_temperature;BMP_pressure;BME280_temperature;BME280_humidity;BME280_pressure;Samples;Min_cycle;Max_cycle;Signal;HPM_P1;HPM_P2
2021/03/04 00:00:46;;;;;;;;;;;;;;;4.38;63.04;102538.13;4189891;28;19928;-86
2021/03/04 00:02:47;;;;;;;;;;;;;;;4.54;62.85;102534.91;4189029;28;19920;-86
2021/03/04 00:04:47;;;;;;;;;;;;;;;4.63;62.90;102548.63;4186794;28;20547;-86
2021/03/04 00:06:47;;;;;;;;;;;;;;;4.50;62.87;102549.75;4190195;28;19928;-86
2021/03/04 00:08:48;;;;;;;;;;;;;;;4.57;62.77;102544.59;4185710;28;19931;-87
2021/03/04 00:10:48;;;;;;;;;;;;;;;4.45;63.01;102534.88;4189077;28;19920;-85
2021/03/04 00:12:49;;;;;;;;;;;;;;;4.52;63.11;102541.47;4189692;28;19928;-86
2021/03/04 00:14:49;;;;;;;;;;;;;;;4.43;62.98;102537.69;4189228;28;19930;-86
2021/03/04 00:16:52;;;;;;;;;;;;;;;4.50;63.11;102533.47;4189878;28;19931;-86
2021/03/04 00:18:53;;;;;;;;;;;;;;;4.46;63.12;102537.44;4182068;28;20467;-86
2021/03/04 00:20:53;;;;;;;;;;;;;;;4.51;63.21;102543.34;4191502;28;19924;-86
2021/03/04 00:22:53;;;;;;;;;;;;;;;4.40;63.40;102538.84;4188018;28;20015;-87
2021/03/04 00:24:54;;;;;;;;;;;;;;;4.44;63.37;102536.75;4186133;28;20015;-85
2021/03/04 00:26:54;;;;;;;;;;;;;;;4.52;63.18;102533.34;4187675;28;19935;-86
2021/03/04 00:28:54;;;;;;;;;;;;;;;4.44;63.42;102527.78;4189286;28;19930;-85
2021/03/04 00:30:55;;;;;;;;;;;;;;;4.48;63.25;102532.78;4189101;28;19928;-86
2021/03/04 00:32:56;;;;;;;;;;;;;;;4.37;63.37;102531.00;4185801;28;19924;-85
2021/03/04 00:34:56;;;;;;;;;;;;;;;4.42;63.52;102520.59;4188954;28;20014;-84
2021/03/04 00:36:56;;;;;;;;;;;;;;;4.28;63.71;102521.00;4191636;28;19966;-84
2021/03/04 00:38:57;;;;;;;;;;;;;;;4.22;64.05;102514.28;4193137;28;19928;-85
2021/03/04 00:40:57;;;;;;;;;;;;;;;4.24;63.85;102511.44;4190772;28;20350;-86
2021/03/04 00:42:57;;;;;;;;;;;;;;;4.29;63.71;102516.44;4173268;28;19924;-85
2021/03/04 00:44:58;;;;;;;;;;;;;;;4.37;63.56;102522.00;4187805;28;20413;-85
2021/03/04 00:46:58;;;;;;;;;;;;;;;4.34;63.82;102530.41;4190314;28;20313;-85
2021/03/04 00:48:58;;;;;;;;;;;;;;;4.35;63.44;102537.56;4173845;28;19920;-85
2021/03/04 00:50:59;;;;;;;;;;;;;;;4.42;63.41;102544.13;4186025;28;19963;-85
2021/03/04 00:52:59;;;;;;;;;;;;;;;4.38;63.52;102534.56;4190452;28;19924;-85
2021/03/04 00:55:00;;;;;;;;;;;;;;;4.31;63.67;102537.00;4190993;28;19976;-85
2021/03/04 00:57:00;;;;;;;;;;;;;;;4.48;63.08;102521.94;4190252;28;19924;-85
2021/03/04 00:59:01;;;;;;;;;;;;;;;4.41;63.16;102515.31;4192919;28;19916;-85
2021/03/04 01:01:01;;;;;;;;;;;;;;;4.36;63.25;102514.88;4185062;28;19998;-85
2021/03/04 01:03:01;;;;;;;;;;;;;;;4.41;63.30;102512.59;4190516;28;20389;-86
2021/03/04 01:05:03;;;;;;;;;;;;;;;4.31;63.42;102507.16;4191167;28;20054;-86
2021/03/04 01:07:03;;;;;;;;;;;;;;;4.35;63.56;102505.03;4184653;28;19920;-85
2021/03/04 01:09:07;;;;;;;;;;;;;;;4.36;63.19;102498.63;4190213;28;19923;-86
2021/03/04 01:11:10;;;;;;;;;;;;;;;4.30;63.61;102499.19;4186235;28;20383;-86
2021/03/04 01:13:10;;;;;;;;;;;;;;;4.40;63.31;102490.06;4190305;28;19928;-85
2021/03/04 01:15:15;;;;;;;;;;;;;;;4.29;63.59;102487.47;4186128;28;19932;-86
2021/03/04 01:17:15;;;;;;;;;;;;;;;4.42;63.22;102490.75;4191338;28;19920;-86
2021/03/04 01:19:15;;;;;;;;;;;;;;;4.38;63.45;102491.19;4193298;28;20524;-86
2021/03/04 01:21:16;;;;;;;;;;;;;;;4.45;63.18;102486.97;4186614;28;19924;-85
2021/03/04 01:23:16;;;;;;;;;;;;;;;4.33;63.29;102483.47;4188989;28;19927;-85
2021/03/04 01:25:17;;;;;;;;;;;;;;;4.39;63.34;102488.34;4191333;28;19935;-86
2021/03/04 01:27:17;;;;;;;;;;;;;;;4.37;63.44;102486.75;4191090;28;19926;-86
2021/03/04 01:29:17;;;;;;;;;;;;;;;4.49;63.11;102498.38;4190815;28;19929;-86
2021/03/04 01:31:18;;;;;;;;;;;;;;;4.46;63.15;102507.63;4185426;28;19928;-86
2021/03/04 01:33:18;;;;;;;;;;;;;;;4.48;63.29;102510.19;4190243;28;20689;-85
2021/03/04 01:35:18;;;;;;;;;;;;;;;4.49;63.24;102509.22;4192369;28;20309;-85
2021/03/04 01:37:19;;;;;;;;;;;;;;;4.46;63.36;102510.34;4188360;28;20011;-86
2021/03/04 01:39:19;;;;;;;;;;;;;;;4.50;63.48;102505.50;4191944;28;19924;-86
2021/03/04 01:41:19;;;;;;;;;;;;;;;4.47;63.33;102505.78;4189315;28;19928;-86
2021/03/04 01:43:19;;;;;;;;;;;;;;;4.45;63.28;102503.22;4190277;28;19916;-87
2021/03/04 01:45:20;;;;;;;;;;;;;;;4.48;63.24;102493.94;4192264;28;20298;-86
2021/03/04 01:47:20;;;;;;;;;;;;;;;4.51;63.21;102494.53;4190731;28;19924;-85
2021/03/04 01:49:21;;;;;;;;;;;;;;;4.50;63.14;102495.50;4190731;28;19960;-85
2021/03/04 01:51:21;;;;;;;;;;;;;;;4.53;63.29;102494.38;4190116;28;19924;-86
2021/03/04 01:53:21;;;;;;;;;;;;;;;4.51;63.27;102483.69;4189138;28;20019;-86
2021/03/04 01:55:22;;;;;;;;;;;;;;;4.46;63.41;102471.53;4188768;28;20017;-86
2021/03/04 01:57:23;;;;;;;;;;;;;;;4.47;63.29;102482.25;4190702;28;19936;-85
2021/03/04 01:59:23;;;;;;;;;;;;;;;4.47;63.26;102476.81;4191054;28;20705;-86
2021/03/04 02:01:23;;;;;;;;;;;;;;;4.44;63.36;102473.53;4185581;28;20382;-86
2021/03/04 02:03:24;;;;;;;;;;;;;;;4.39;63.49;102474.78;4190351;28;20022;-85
2021/03/04 02:05:24;;;;;;;;;;;;;;;4.37;63.44;102470.50;4189255;28;20591;-86
2021/03/04 02:07:24;;;;;;;;;;;;;;;4.31;63.71;102469.22;4189427;28;19966;-85
2021/03/04 02:09:25;;;;;;;;;;;;;;;4.32;63.81;102460.06;4191826;28;20354;-86
2021/03/04 02:11:43;;;;;;;;;;;;;;;4.39;63.43;102452.25;4194149;28;19924;-86
2021/03/04 02:13:47;;;;;;;;;;;;;;;4.42;63.43;102441.13;4194932;28;19928;-86
2021/03/04 02:15:51;;;;;;;;;;;;;;;4.20;63.77;102440.41;4192053;28;19916;-86
2021/03/04 02:17:52;;;;;;;;;;;;;;;4.32;63.64;102442.97;4194215;28;19920;-85
2021/03/04 02:19:58;;;;;;;;;;;;;;;4.36;63.46;102445.25;4192777;28;19926;-85
2021/03/04 02:22:08;;;;;;;;;;;;;;;4.39;63.60;102444.13;4193312;28;19921;-85
2021/03/04 02:24:17;;;;;;;;;;;;;;;4.37;63.46;102448.81;4191093;28;19920;-84
2021/03/04 02:26:49;;;;;;;;;;;;;;;4.41;63.45;102448.38;4188737;28;19954;-84
2021/03/04 02:28:52;;;;;;;;;;;;;;;4.37;63.40;102455.09;4190386;28;19916;-85
2021/03/04 02:30:53;;;;;;;;;;;;;;;4.42;63.35;102438.41;4192475;28;19977;-85
2021/03/04 02:32:57;;;;;;;;;;;;;;;4.38;63.35;102445.94;4192991;28;20414;-85
2021/03/04 02:35:06;;;;;;;;;;;;;;;4.40;63.27;102430.41;4190273;28;19947;-87
2021/03/04 02:37:06;;;;;;;;;;;;;;;4.43;63.34;102415.69;4193743;28;19920;-86
2021/03/04 02:39:08;;;;;;;;;;;;;;;4.39;63.32;102422.44;4188848;28;20006;-85
2021/03/04 02:41:08;;;;;;;;;;;;;;;4.45;63.37;102419.19;4195375;28;19924;-86
2021/03/04 02:43:10;;;;;;;;;;;;;;;4.47;63.39;102414.47;4192838;28;20020;-86
2021/03/04 02:45:11;;;;;;;;;;;;;;;4.45;63.32;102413.75;4193016;28;19916;-86
2021/03/04 02:47:11;;;;;;;;;;;;;;;4.47;63.32;102411.75;4195006;28;19921;-86
2021/03/04 02:49:12;;;;;;;;;;;;;;;4.42;63.23;102406.72;4190199;28;19959;-86
2021/03/04 02:51:12;;;;;;;;;;;;;;;4.41;63.54;102401.44;4192732;28;20310;-86
2021/03/04 02:53:13;;;;;;;;;;;;;;;4.42;63.40;102389.63;4190965;28;19924;-86
2021/03/04 02:55:14;;;;;;;;;;;;;;;4.48;63.24;102385.47;4190376;28;19928;-85
2021/03/04 02:57:14;;;;;;;;;;;;;;;4.52;63.18;102381.50;4194079;28;20007;-85
2021/03/04 02:59:15;;;;;;;;;;;;;;;4.49;63.40;102395.34;4192349;28;19920;-86
2021/03/04 03:01:15;;;;;;;;;;;;;;;4.41;63.35;102388.72;4192842;28;19985;-86
2021/03/04 03:03:16;;;;;;;;;;;;;;;4.41;63.40;102388.72;4192769;28;20049;-85
2021/03/04 03:05:18;;;;;;;;;;;;;;;4.41;63.29;102386.03;4193856;28;19955;-86
2021/03/04 03:07:19;;;;;;;;;;;;;;;4.36;63.44;102380.19;4189541;28;20330;-85
2021/03/04 03:09:21;;;;;;;;;;;;;;;4.32;63.73;102377.91;4191714;28;19923;-85
2021/03/04 03:11:22;;;;;;;;;;;;;;;4.30;63.68;102369.06;4188850;28;20402;-85
2021/03/04 03:13:22;;;;;;;;;;;;;;;4.25;64.16;102373.06;4190486;28;19931;-86
2021/03/04 03:15:23;;;;;;;;;;;;;;;4.31;63.99;102370.75;4194711;28;19916;-86
2021/03/04 03:17:24;;;;;;;;;;;;;;;4.36;63.77;102369.34;4194293;28;19962;-85
2021/03/04 03:19:24;;;;;;;;;;;;;;;4.30;63.91;102358.22;4190205;28;19955;-86
2021/03/04 03:21:24;;;;;;;;;;;;;;;4.37;64.01;102356.63;4195927;28;19924;-85
2021/03/04 03:23:25;;;;;;;;;;;;;;;4.33;64.05;102360.66;4190174;28;19974;-85
2021/03/04 03:25:25;;;;;;;;;;;;;;;4.34;64.07;102356.94;4192730;28;19920;-86
2021/03/04 03:27:26;;;;;;;;;;;;;;;4.22;64.34;102357.09;4191169;28;20002;-86
2021/03/04 03:29:26;;;;;;;;;;;;;;;4.32;63.80;102361.66;4190176;28;19920;-85
2021/03/04 03:31:27;;;;;;;;;;;;;;;4.34;63.79;102352.38;4183362;28;20374;-85
2021/03/04 03:33:28;;;;;;;;;;;;;;;4.31;63.93;102360.78;4188974;28;19959;-86
2021/03/04 03:35:29;;;;;;;;;;;;;;;4.28;64.01;102355.66;4193906;28;19944;-85
2021/03/04 03:37:29;;;;;;;;;;;;;;;4.21;64.01;102349.09;4188780;28;19932;-86
2021/03/04 03:39:30;;;;;;;;;;;;;;;4.30;63.45;102347.38;4189240;28;19924;-86
2021/03/04 03:41:31;;;;;;;;;;;;;;;4.30;63.34;102347.38;4191409;28;19927;-85
2021/03/04 03:43:33;;;;;;;;;;;;;;;4.35;63.30;102345.09;4190741;28;20013;-85
2021/03/04 03:45:34;;;;;;;;;;;;;;;4.37;63.37;102346.66;4192026;28;19924;-86
2021/03/04 03:47:35;;;;;;;;;;;;;;;4.41;63.41;102347.22;4193246;28;20366;-85
2021/03/04 03:49:37;;;;;;;;;;;;;;;4.37;63.35;102337.66;4190284;28;19925;-86
2021/03/04 03:51:38;;;;;;;;;;;;;;;4.47;63.12;102338.53;4193754;28;19959;-85
2021/03/04 03:53:38;;;;;;;;;;;;;;;4.36;63.09;102331.41;4190035;28;20375;-85
2021/03/04 03:55:40;;;;;;;;;;;;;;;4.30;63.14;102331.13;4189063;28;19973;-86
2021/03/04 03:57:41;;;;;;;;;;;;;;;4.19;63.51;102332.13;4191866;28;19936;-86
2021/03/04 03:59:42;;;;;;;;;;;;;;;4.30;63.41;102331.97;4190741;28;20041;-86
2021/03/04 04:01:43;;;;;;;;;;;;;;;4.35;63.05;102331.53;4191093;28;19924;-85
2021/03/04 04:03:43;;;;;;;;;;;;;;;4.26;63.45;102330.53;4190887;28;19932;-86
2021/03/04 04:05:43;;;;;;;;;;;;;;;4.34;63.46;102322.56;4186500;28;20515;-85
2021/03/04 04:07:44;;;;;;;;;;;;;;;4.34;63.41;102327.09;4193088;28;19924;-85
2021/03/04 04:09:45;;;;;;;;;;;;;;;4.41;63.23;102336.38;4192635;28;19924;-85
2021/03/04 04:11:45;;;;;;;;;;;;;;;4.47;63.22;102335.00;4189894;28;19917;-85
2021/03/04 04:13:46;;;;;;;;;;;;;;;4.49;63.07;102335.69;4192121;28;19921;-85
2021/03/04 04:15:46;;;;;;;;;;;;;;;4.53;63.05;102346.09;4189976;28;20691;-85
2021/03/04 04:17:47;;;;;;;;;;;;;;;4.43;63.43;102339.78;4191922;28;20307;-84
2021/03/04 04:19:48;;;;;;;;;;;;;;;4.45;63.46;102334.25;4192469;28;19925;-86
2021/03/04 04:21:48;;;;;;;;;;;;;;;4.32;64.01;102334.53;4187204;28;20667;-86
2021/03/04 04:23:48;;;;;;;;;;;;;;;4.33;63.68;102330.84;4192056;28;19974;-85
2021/03/04 04:25:50;;;;;;;;;;;;;;;4.42;63.45;102327.25;4191502;28;19916;-85
2021/03/04 04:27:51;;;;;;;;;;;;;;;4.36;63.68;102330.56;4189196;28;20019;-86
2021/03/04 04:29:51;;;;;;;;;;;;;;;4.44;63.43;102332.56;4186968;28;19979;-86
2021/03/04 04:31:52;;;;;;;;;;;;;;;4.42;63.56;102316.41;4190265;28;20387;-87
2021/03/04 04:33:52;;;;;;;;;;;;;;;4.40;63.48;102308.44;4189901;28;20387;-86
2021/03/04 04:35:52;;;;;;;;;;;;;;;4.43;63.62;102299.13;4191593;28;20468;-85
2021/03/04 04:37:52;;;;;;;;;;;;;;;4.47;63.62;102297.88;4187942;28;19925;-86
2021/03/04 04:39:53;;;;;;;;;;;;;;;4.47;63.52;102295.16;4191994;28;19932;-86
2021/03/04 04:41:53;;;;;;;;;;;;;;;4.50;63.55;102305.72;4187596;28;19931;-86
2021/03/04 04:43:53;;;;;;;;;;;;;;;4.48;63.58;102301.44;4190712;28;19959;-85
2021/03/04 04:45:53;;;;;;;;;;;;;;;4.44;63.46;102308.16;4189731;28;20051;-86
2021/03/04 04:47:54;;;;;;;;;;;;;;;4.46;63.79;102312.41;4185265;28;19940;-86
2021/03/04 04:49:54;;;;;;;;;;;;;;;4.52;63.42;102325.41;4190035;28;20094;-85
2021/03/04 04:51:54;;;;;;;;;;;;;;;4.52;63.32;102325.41;4193380;28;20411;-86
2021/03/04 04:53:55;;;;;;;;;;;;;;;4.52;63.35;102314.56;4186090;28;19935;-85
2021/03/04 04:55:55;;;;;;;;;;;;;;;4.49;63.33;102309.41;4190123;28;19970;-86
2021/03/04 04:57:56;;;;;;;;;;;;;;;4.44;63.51;102317.16;4190115;28;19924;-86
2021/03/04 04:59:56;;;;;;;;;;;;;;;4.46;63.43;102320.56;4190071;28;19939;-85
2021/03/04 05:01:56;;;;;;;;;;;;;;;4.49;63.27;102324.84;4193607;28;19924;-85
2021/03/04 05:03:56;;;;;;;;;;;;;;;4.49;63.15;102316.72;4187988;28;19942;-86
2021/03/04 05:05:57;;;;;;;;;;;;;;;4.51;63.25;102311.97;4192141;28;19927;-86
2021/03/04 05:07:57;;;;;;;;;;;;;;;4.36;63.54;102315.13;4193248;28;20022;-85
2021/03/04 05:09:57;;;;;;;;;;;;;;;4.51;63.04;102320.13;4190217;28;19924;-85
2021/03/04 05:11:57;;;;;;;;;;;;;;;4.38;63.31;102312.28;4191928;28;19920;-86
2021/03/04 05:13:58;;;;;;;;;;;;;;;4.46;63.00;102314.28;4189705;28;19947;-85
2021/03/04 05:16:01;;;;;;;;;;;;;;;4.52;62.75;102321.84;4188608;28;20012;-85
2021/03/04 05:18:01;;;;;;;;;;;;;;;4.48;62.95;102312.28;4191983;28;19916;-85
2021/03/04 05:20:03;;;;;;;;;;;;;;;4.47;62.84;102303.28;4190013;28;19940;-85
2021/03/04 05:22:04;;;;;;;;;;;;;;;4.45;62.86;102290.88;4191345;28;20009;-86
2021/03/04 05:24:04;;;;;;;;;;;;;;;4.25;63.34;102296.31;4192932;28;19939;-86
2021/03/04 05:26:04;;;;;;;;;;;;;;;4.41;63.05;102295.72;4188222;28;19974;-86
2021/03/04 05:28:05;;;;;;;;;;;;;;;4.41;63.00;102291.13;4184832;28;19928;-85
2021/03/04 05:30:06;;;;;;;;;;;;;;;4.45;63.14;102289.03;4187365;28;19928;-85
2021/03/04 05:32:06;;;;;;;;;;;;;;;4.50;63.01;102288.59;4187681;28;19930;-85
2021/03/04 05:34:06;;;;;;;;;;;;;;;4.40;63.25;102292.16;4192922;28;19967;-86
2021/03/04 05:36:07;;;;;;;;;;;;;;;4.49;63.04;102287.72;4190795;28;19931;-85
2021/03/04 05:38:07;;;;;;;;;;;;;;;4.49;63.11;102298.56;4188555;28;19931;-85
2021/03/04 05:40:08;;;;;;;;;;;;;;;4.51;63.00;102295.72;4189703;28;19929;-85
2021/03/04 05:42:08;;;;;;;;;;;;;;;4.54;62.80;102300.84;4188315;28;20018;-86
2021/03/04 05:44:09;;;;;;;;;;;;;;;4.50;62.69;102303.00;4189981;28;19931;-85
2021/03/04 05:46:09;;;;;;;;;;;;;;;4.49;62.63;102306.72;4189314;28;19943;-85
2021/03/04 05:48:11;;;;;;;;;;;;;;;4.44;62.60;102305.47;4191795;28;19925;-85
2021/03/04 05:50:12;;;;;;;;;;;;;;;4.43;62.71;102299.13;4192376;28;20309;-85
2021/03/04 05:52:16;;;;;;;;;;;;;;;4.51;62.61;102302.00;4193115;28;20436;-86
2021/03/04 05:54:20;;;;;;;;;;;;;;;4.44;62.66;102302.75;4191755;28;20366;-86
2021/03/04 05:56:21;;;;;;;;;;;;;;;4.41;62.75;102306.56;4195250;28;19999;-86
2021/03/04 05:58:23;;;;;;;;;;;;;;;4.39;63.09;102303.16;4191001;28;19971;-86
2021/03/04 06:00:23;;;;;;;;;;;;;;;4.38;62.94;102305.00;4195790;28;19954;-86
2021/03/04 06:02:24;;;;;;;;;;;;;;;4.40;63.05;102299.41;4194028;28;20515;-86
2021/03/04 06:04:25;;;;;;;;;;;;;;;4.40;63.02;102300.28;4191961;28;19928;-85
2021/03/04 06:06:25;;;;;;;;;;;;;;;4.43;62.94;102299.13;4189401;28;19962;-85
2021/03/04 06:08:25;;;;;;;;;;;;;;;4.28;63.46;102296.03;4190983;28;20493;-85
2021/03/04 06:10:28;;;;;;;;;;;;;;;4.32;63.12;102299.31;4192973;28;19929;-85
2021/03/04 06:12:29;;;;;;;;;;;;;;;4.35;62.92;102297.16;4176063;28;20019;-85
2021/03/04 06:14:30;;;;;;;;;;;;;;;4.36;62.94;102296.16;4191550;28;19932;-86
2021/03/04 06:16:31;;;;;;;;;;;;;;;4.36;62.90;102292.59;4190594;28;19924;-85
2021/03/04 06:18:41;;;;;;;;;;;;;;;4.37;62.91;102294.28;4190980;28;20315;-86
2021/03/04 06:20:42;;;;;;;;;;;;;;;4.23;63.00;102293.75;4189557;28;20313;-85
2021/03/04 06:22:45;;;;;;;;;;;;;;;4.19;63.51;102300.47;4192442;28;19924;-85
2021/03/04 06:24:49;;;;;;;;;;;;;;;4.14;63.20;102281.09;4192449;28;19920;-86
2021/03/04 06:26:53;;;;;;;;;;;;;;;4.22;62.93;102291.19;4191082;28;19959;-86
2021/03/04 06:28:54;;;;;;;;;;;;;;;4.22;62.68;102288.50;4187313;28;19931;-86
2021/03/04 06:30:54;;;;;;;;;;;;;;;4.21;62.97;102284.06;4186684;28;20314;-86
2021/03/04 06:32:57;;;;;;;;;;;;;;;4.32;62.88;102283.03;4191501;28;19924;-86
2021/03/04 06:35:10;;;;;;;;;;;;;;;4.20;62.97;102276.91;4190209;28;19916;-85
2021/03/04 06:37:11;;;;;;;;;;;;;;;4.34;62.77;102273.78;4191046;28;19927;-86
2021/03/04 06:39:11;;;;;;;;;;;;;;;4.36;62.67;102271.75;4194799;28;20509;-86
2021/03/04 06:41:18;;;;;;;;;;;;;;;4.31;62.58;102273.19;4189425;28;19936;-85
2021/03/04 06:43:21;;;;;;;;;;;;;;;4.39;62.64;102278.75;4193195;28;19931;-85
2021/03/04 06:45:29;;;;;;;;;;;;;;;4.39;62.57;102281.47;4192571;28;19924;-86
2021/03/04 06:47:29;;;;;;;;;;;;;;;4.33;62.65;102280.19;4190140;28;19916;-86
2021/03/04 06:49:40;;;;;;;;;;;;;;;4.29;62.86;102278.75;4193491;28;19964;-86
2021/03/04 06:51:43;;;;;;;;;;;;;;;4.40;62.57;102284.03;4191556;28;19916;-86
2021/03/04 06:53:50;;;;;;;;;;;;;;;4.25;62.94;102285.50;4192416;28;19924;-86
2021/03/04 06:55:55;;;;;;;;;;;;;;;4.25;63.28;102283.63;4191638;28;19924;-86
2021/03/04 06:57:59;;;;;;;;;;;;;;;4.30;63.10;102282.34;4187732;28;19927;-86
2021/03/04 06:59:59;;;;;;;;;;;;;;;4.25;63.31;102282.78;4193663;28;19920;-85
2021/03/04 07:01:59;;;;;;;;;;;;;;;4.27;63.35;102288.06;4193552;28;20461;-85
2021/03/04 07:04:00;;;;;;;;;;;;;;;4.34;63.18;102287.31;4189768;28;19994;-85
2021/03/04 07:06:01;;;;;;;;;;;;;;;4.32;63.27;102286.59;4194058;28;19924;-86
2021/03/04 07:08:02;;;;;;;;;;;;;;;4.36;63.29;102282.59;4188716;28;19973;-85
2021/03/04 07:10:04;;;;;;;;;;;;;;;4.30;63.43;102287.75;4192173;28;20340;-86
2021/03/04 07:12:05;;;;;;;;;;;;;;;4.25;63.74;102282.78;4185887;28;19975;-84
2021/03/04 07:14:06;;;;;;;;;;;;;;;4.19;63.71;102286.91;4189087;28;19924;-85
2021/03/04 07:16:08;;;;;;;;;;;;;;;4.30;63.52;102285.91;4189464;28;19921;-85
2021/03/04 07:18:08;;;;;;;;;;;;;;;4.38;63.42;102285.16;4190002;28;19928;-85
2021/03/04 07:20:13;;;;;;;;;;;;;;;4.42;63.42;102290.16;4192605;28;19925;-85
2021/03/04 07:22:13;;;;;;;;;;;;;;;4.43;63.35;102293.69;4193494;28;19920;-86
2021/03/04 07:24:14;;;;;;;;;;;;;;;4.47;63.26;102297.03;4189332;28;20105;-86
2021/03/04 07:26:15;;;;;;;;;;;;;;;4.43;63.21;102301.84;4192897;28;20385;-85
2021/03/04 07:28:16;;;;;;;;;;;;;;;4.33;63.37;102296.44;4193737;28;19973;-86
2021/03/04 07:30:17;;;;;;;;;;;;;;;4.46;63.12;102306.16;4188467;28;19924;-85
2021/03/04 07:32:18;;;;;;;;;;;;;;;4.43;63.39;102304.53;4194301;28;20677;-86
2021/03/04 07:34:19;;;;;;;;;;;;;;;4.44;63.47;102303.59;4169529;28;19925;-86
2021/03/04 07:36:20;;;;;;;;;;;;;;;4.17;64.34;102310.59;4191135;28;19921;-86
2021/03/04 07:38:24;;;;;;;;;;;;;;;4.29;64.00;102305.84;4194648;28;20423;-85
2021/03/04 07:40:25;;;;;;;;;;;;;;;4.44;63.85;102311.72;4190767;28;19998;-86
2021/03/04 07:42:26;;;;;;;;;;;;;;;4.31;64.44;102305.72;4190956;28;20708;-86
2021/03/04 07:44:27;;;;;;;;;;;;;;;4.35;63.99;102309.84;4191288;28;19916;-86
2021/03/04 07:46:29;;;;;;;;;;;;;;;4.36;64.05;102309.72;4191081;28;20438;-86
2021/03/04 07:48:29;;;;;;;;;;;;;;;4.34;64.06;102316.25;4192586;28;19970;-85
2021/03/04 07:50:29;;;;;;;;;;;;;;;3.92;65.40;102313.88;4190445;28;19925;-85
2021/03/04 07:52:29;;;;;;;;;;;;;;;4.03;65.25;102314.59;4190731;28;20326;-84
2021/03/04 07:54:30;;;;;;;;;;;;;;;4.12;65.33;102312.03;4186224;28;20476;-87
2021/03/04 07:56:31;;;;;;;;;;;;;;;4.17;65.04;102310.59;4189813;28;20294;-85
2021/03/04 07:58:38;;;;;;;;;;;;;;;4.13;65.16;102316.44;4192469;28;19931;-87
2021/03/04 08:00:38;;;;;;;;;;;;;;;4.29;64.77;102314.00;4189692;28;19920;-83
2021/03/04 08:02:39;;;;;;;;;;;;;;;4.16;65.34;102322.44;4188219;28;19921;-85
2021/03/04 08:04:39;;;;;;;;;;;;;;;4.21;65.11;102314.72;4170651;28;19960;-85
2021/03/04 08:06:43;;;;;;;;;;;;;;;4.05;65.32;102319.88;4190162;28;20010;-87
2021/03/04 08:08:46;;;;;;;;;;;;;;;4.17;65.44;102310.59;4188957;28;19931;-86
2021/03/04 08:10:56;;;;;;;;;;;;;;;4.13;65.77;102317.28;4189797;28;20305;-85
2021/03/04 08:13:00;;;;;;;;;;;;;;;4.12;65.55;102301.19;4191138;28;20393;-85
2021/03/04 08:15:01;;;;;;;;;;;;;;;4.02;65.75;102303.91;4186541;28;19923;-86
2021/03/04 08:17:03;;;;;;;;;;;;;;;4.05;65.36;102306.34;4173607;28;19924;-86
2021/03/04 08:19:03;;;;;;;;;;;;;;;4.19;65.08;102291.50;4186674;28;19924;-85
2021/03/04 08:21:04;;;;;;;;;;;;;;;4.14;64.92;102296.47;4187315;28;20397;-84
2021/03/04 08:23:05;;;;;;;;;;;;;;;4.24;64.81;102298.16;4185051;28;19925;-85
2021/03/04 08:25:06;;;;;;;;;;;;;;;4.23;64.92;102299.19;4190594;28;19955;-85
2021/03/04 08:27:06;;;;;;;;;;;;;;;4.45;64.47;102296.31;4191123;28;19959;-86
2021/03/04 08:29:10;;;;;;;;;;;;;;;4.53;64.45;102301.88;4189869;28;19928;-85
2021/03/04 08:31:10;;;;;;;;;;;;;;;4.67;64.43;102300.53;4191221;28;19917;-85
2021/03/04 08:33:14;;;;;;;;;;;;;;;4.78;64.17;102300.34;4192037;28;20547;-85
2021/03/04 08:35:18;;;;;;;;;;;;;;;4.72;63.90;102304.50;4188737;28;19923;-85
2021/03/04 08:37:23;;;;;;;;;;;;;;;4.89;63.18;102299.31;4188853;28;19942;-86
2021/03/04 08:39:23;;;;;;;;;;;;;;;4.93;62.69;102296.16;4190041;28;20014;-85
2021/03/04 08:41:24;;;;;;;;;;;;;;;4.99;62.67;102292.00;4186935;28;19982;-86
2021/03/04 08:43:25;;;;;;;;;;;;;;;4.90;62.31;102296.44;4189863;28;20316;-85
2021/03/04 08:45:26;;;;;;;;;;;;;;;5.00;62.30;102290.13;4190143;28;19917;-86
2021/03/04 08:47:27;;;;;;;;;;;;;;;5.04;61.93;102289.66;4187474;28;19926;-86
2021/03/04 08:49:27;;;;;;;;;;;;;;;4.93;61.61;102290.72;4184940;28;19970;-85
2021/03/04 08:51:28;;;;;;;;;;;;;;;4.92;61.36;102294.44;4182826;28;20492;-86
2021/03/04 08:53:29;;;;;;;;;;;;;;;4.86;61.19;102288.75;4187840;28;19928;-86
2021/03/04 08:55:29;;;;;;;;;;;;;;;4.76;61.21;102294.22;4182170;28;20321;-84
2021/03/04 08:57:29;;;;;;;;;;;;;;;4.70;60.76;102289.41;4188268;28;19963;-85
2021/03/04 08:59:32;;;;;;;;;;;;;;;4.89;60.78;102293.88;4191962;28;20390;-86
2021/03/04 09:01:32;;;;;;;;;;;;;;;4.94;60.42;102299.72;4184789;28;19924;-85
2021/03/04 09:03:53;;;;;;;;;;;;;;;4.88;60.57;102298.47;4185383;28;20413;-85
2021/03/04 09:06:25;;;;;;;;;;;;;;;4.89;60.58;102304.75;4185961;28;19919;-86
2021/03/04 09:08:31;;;;;;;;;;;;;;;4.78;60.50;102294.94;4161969;28;20389;-85
2021/03/04 09:10:38;;;;;;;;;;;;;;;4.81;60.34;102300.06;4189137;28;19927;-86
2021/03/04 09:12:42;;;;;;;;;;;;;;;4.75;60.58;102290.66;4187320;28;19924;-87
2021/03/04 09:14:48;;;;;;;;;;;;;;;4.64;60.45;102298.13;4189453;28;19925;-85
2021/03/04 09:17:08;;;;;;;;;;;;;;;4.83;60.20;102292.63;4185820;28;19921;-85
2021/03/04 09:19:09;;;;;;;;;;;;;;;4.75;60.38;102297.94;4174763;28;20466;-86
2021/03/04 09:21:19;;;;;;;;;;;;;;;4.84;60.30;102291.63;4191275;28;19987;-85
2021/03/04 09:23:20;;;;;;;;;;;;;;;4.69;60.47;102295.81;4173110;28;20519;-85
2021/03/04 09:25:21;;;;;;;;;;;;;;;4.81;60.21;102296.50;4190627;28;20043;-85
2021/03/04 09:27:21;;;;;;;;;;;;;;;4.87;60.28;102293.19;4194457;28;19962;-85
2021/03/04 09:29:22;;;;;;;;;;;;;;;4.71;60.21;102291.09;4192364;28;20028;-84
2021/03/04 09:31:25;;;;;;;;;;;;;;;4.89;60.31;102291.16;4190314;28;20593;-86
2021/03/04 09:33:26;;;;;;;;;;;;;;;4.92;60.13;102293.59;4191802;28;20465;-84
2021/03/04 09:35:26;;;;;;;;;;;;;;;4.88;60.26;102297.59;4193848;28;19925;-85
2021/03/04 09:37:28;;;;;;;;;;;;;;;4.94;60.06;102294.28;4191020;28;20315;-85
2021/03/04 09:39:35;;;;;;;;;;;;;;;4.95;59.96;102288.69;4187425;28;19935;-86
2021/03/04 09:41:36;;;;;;;;;;;;;;;4.92;60.25;102293.59;4191087;28;19921;-86
2021/03/04 09:43:43;;;;;;;;;;;;;;;4.64;60.49;102295.41;4193951;28;19924;-85
2021/03/04 09:45:56;;;;;;;;;;;;;;;4.89;60.00;102286.59;4187414;28;19919;-86
2021/03/04 09:47:56;;;;;;;;;;;;;;;5.06;59.53;102284.09;4190210;28;19924;-85
2021/03/04 09:49:58;;;;;;;;;;;;;;;5.39;58.65;102284.47;4192323;28;19916;-85
2021/03/04 09:51:58;;;;;;;;;;;;;;;5.70;58.33;102279.53;4189769;28;19931;-85
2021/03/04 09:53:58;;;;;;;;;;;;;;;5.96;58.93;102274.19;4190634;28;19920;-86
2021/03/04 09:56:06;;;;;;;;;;;;;;;6.14;56.24;102273.28;4191773;28;20437;-85
2021/03/04 09:58:16;;;;;;;;;;;;;;;6.51;56.47;102274.94;4189614;28;19942;-85
2021/03/04 10:00:16;;;;;;;;;;;;;;;6.62;55.87;102273.81;4193266;28;20658;-85
2021/03/04 10:02:17;;;;;;;;;;;;;;;6.46;54.81;102277.31;4191651;28;19927;-85
2021/03/04 10:04:24;;;;;;;;;;;;;;;6.44;55.25;102268.44;4190437;28;19916;-85
2021/03/04 10:06:25;;;;;;;;;;;;;;;6.37;55.11;102266.34;4189662;28;20329;-85
2021/03/04 10:08:25;;;;;;;;;;;;;;;6.29;55.11;102274.44;4191238;28;19928;-85
2021/03/04 10:10:26;;;;;;;;;;;;;;;6.29;55.49;102277.16;4191591;28;20563;-85
2021/03/04 10:12:26;;;;;;;;;;;;;;;6.30;55.36;102273.44;4194671;28;19920;-84
2021/03/04 10:14:27;;;;;;;;;;;;;;;6.17;55.23;102273.81;4193265;28;19924;-84
2021/03/04 10:16:27;;;;;;;;;;;;;;;6.07;55.55;102277.63;4193197;28;19924;-85
2021/03/04 10:18:27;;;;;;;;;;;;;;;6.02;55.27;102279.00;4194211;28;19925;-86
2021/03/04 10:20:28;;;;;;;;;;;;;;;5.94;55.13;102281.63;4191942;28;20036;-84
2021/03/04 10:22:28;;;;;;;;;;;;;;;5.88;55.17;102275.97;4192585;28;19932;-82
2021/03/04 10:24:28;;;;;;;;;;;;;;;5.68;55.03;102282.41;4191858;28;19962;-84
2021/03/04 10:26:28;;;;;;;;;;;;;;;5.78;55.36;102286.94;4191134;28;19920;-85
2021/03/04 10:28:29;;;;;;;;;;;;;;;5.74;55.63;102286.34;4175565;28;20410;-86
2021/03/04 10:30:30;;;;;;;;;;;;;;;5.61;56.00;102280.47;4190420;28;19923;-86
2021/03/04 10:32:31;;;;;;;;;;;;;;;5.70;55.40;102286.81;4176965;28;20361;-86
2021/03/04 10:34:31;;;;;;;;;;;;;;;5.78;55.74;102279.63;4188325;28;19920;-84